sensor_id;sensor_type;location;lat;lon;timestamp;pressure;altitude;pressure_sealevel;temperature;humidity
19795;BME280;10057;59.402;17.866;2023-12-29T00:01:23;99296.66;;;1.20;89.08
19795;BME280;10057;59.402;17.866;2023-12-29T00:03:50;99304.44;;;1.22;88.98
19795;BME280;10057;59.402;17.866;2023-12-29T00:06:16;99300.97;;;1.21;89.16
19795;BME280;10057;59.402;17.866;2023-12-29T00:08:43;99305.34;;;1.21;89.40
19795;BME280;10057;59.402;17.866;2023-12-29T00:11:19;99307.09;;;1.20;89.53
19795;BME280;10057;59.402;17.866;2023-12-29T00:13:46;99295.75;;;1.19;89.62
19795;BME280;10057;59.402;17.866;2023-12-29T00:16:14;99304.44;;;1.22;89.26
19795;BME280;10057;59.402;17.866;2023-12-29T00:18:41;99311.38;;;1.23;89.28
19795;BME280;10057;59.402;17.866;2023-12-29T00:21:08;99308.75;;;1.24;89.20
19795;BME280;10057;59.402;17.866;2023-12-29T00:23:35;99305.22;;;1.25;89.26
19795;BME280;10057;59.402;17.866;2023-12-29T00:26:01;99306.94;;;1.26;89.63
19795;BME280;10057;59.402;17.866;2023-12-29T00:28:28;99309.47;;;1.29;89.35
19795;BME280;10057;59.402;17.866;2023-12-29T00:30:55;99299.88;;;1.31;89.24
19795;BME280;10057;59.402;17.866;2023-12-29T00:33:28;99299.88;;;1.31;89.15
19795;BME280;10057;59.402;17.866;2023-12-29T00:35:56;99289.47;;;1.28;89.22
19795;BME280;10057;59.402;17.866;2023-12-29T00:38:22;99286.00;;;1.28;89.43
19795;BME280;10057;59.402;17.866;2023-12-29T00:40:49;99273.81;;;1.28;89.59
19795;BME280;10057;59.402;17.866;2023-12-29T00:43:16;99278.97;;;1.30;89.22
19795;BME280;10057;59.402;17.866;2023-12-29T00:45:44;99272.88;;;1.31;89.48
19795;BME280;10057;59.402;17.866;2023-12-29T00:48:11;99277.22;;;1.32;89.22
19795;BME280;10057;59.402;17.866;2023-12-29T00:50:38;99271.06;;;1.33;89.21
19795;BME280;10057;59.402;17.866;2023-12-29T00:53:05;99270.22;;;1.32;89.35
19795;BME280;10057;59.402;17.866;2023-12-29T00:55:31;99275.44;;;1.32;88.79
19795;BME280;10057;59.402;17.866;2023-12-29T00:57:58;99270.28;;;1.29;89.13
19795;BME280;10057;59.402;17.866;2023-12-29T01:00:25;99257.28;;;1.28;89.20
19795;BME280;10057;59.402;17.866;2023-12-29T01:02:52;99257.22;;;1.29;89.22
19795;BME280;10057;59.402;17.866;2023-12-29T01:05:19;99257.22;;;1.29;89.21
19795;BME280;10057;59.402;17.866;2023-12-29T01:07:47;99264.22;;;1.29;89.36
19795;BME280;10057;59.402;17.866;2023-12-29T01:10:14;99265.13;;;1.28;89.38
19795;BME280;10057;59.402;17.866;2023-12-29T01:12:41;99258.97;;;1.29;88.94
19795;BME280;10057;59.402;17.866;2023-12-29T01:15:08;99259.84;;;1.29;89.22
19795;BME280;10057;59.402;17.866;2023-12-29T01:17:35;99258.06;;;1.31;89.50
19795;BME280;10057;59.402;17.866;2023-12-29T01:20:02;99257.22;;;1.31;89.61
19795;BME280;10057;59.402;17.866;2023-12-29T01:22:31;99251.13;;;1.30;89.33
19795;BME280;10057;59.402;17.866;2023-12-29T01:25:01;99239.72;;;1.33;89.08
19795;BME280;10057;59.402;17.866;2023-12-29T01:27:28;99234.53;;;1.31;89.69
19795;BME280;10057;59.402;17.866;2023-12-29T01:29:56;99227.56;;;1.32;89.18
19795;BME280;10057;59.402;17.866;2023-12-29T01:32:22;99233.66;;;1.32;88.98
19795;BME280;10057;59.402;17.866;2023-12-29T01:34:49;99228.41;;;1.32;89.23
19795;BME280;10057;59.402;17.866;2023-12-29T01:37:16;99225.81;;;1.32;89.26
19795;BME280;10057;59.402;17.866;2023-12-29T01:39:43;99220.56;;;1.32;89.27
19795;BME280;10057;59.402;17.866;2023-12-29T01:42:09;99211.94;;;1.30;89.44
19795;BME280;10057;59.402;17.866;2023-12-29T01:44:38;99220.66;;;1.29;89.46
19795;BME280;10057;59.402;17.866;2023-12-29T01:47:13;99217.22;;;1.27;88.96
19795;BME280;10057;59.402;17.866;2023-12-29T01:49:44;99229.44;;;1.27;89.35
19795;BME280;10057;59.402;17.866;2023-12-29T01:52:13;99227.69;;;1.26;89.43
19795;BME280;10057;59.402;17.866;2023-12-29T01:54:41;99214.63;;;1.26;89.38
19795;BME280;10057;59.402;17.866;2023-12-29T01:57:09;99217.22;;;1.27;89.32
19795;BME280;10057;59.402;17.866;2023-12-29T01:59:37;99219.84;;;1.27;89.20
19795;BME280;10057;59.402;17.866;2023-12-29T02:02:04;99205.94;;;1.27;89.35
19795;BME280;10057;59.402;17.866;2023-12-29T02:04:31;99205.88;;;1.28;90.04
19795;BME280;10057;59.402;17.866;2023-12-29T02:06:59;99199.75;;;1.29;89.41
19795;BME280;10057;59.402;17.866;2023-12-29T02:09:26;99197.13;;;1.29;89.70
19795;BME280;10057;59.402;17.866;2023-12-29T02:11:54;99177.91;;;1.32;89.64
19795;BME280;10057;59.402;17.866;2023-12-29T02:14:21;99170.94;;;1.32;89.67
19795;BME280;10057;59.402;17.866;2023-12-29T02:16:58;99170.03;;;1.33;89.81
19795;BME280;10057;59.402;17.866;2023-12-29T02:22:04;99154.34;;;1.33;89.40
19795;BME280;10057;59.402;17.866;2023-12-29T02:24:33;99170.88;;;1.35;89.83
19795;BME280;10057;59.402;17.866;2023-12-29T02:29:33;99165.63;;;1.35;89.40
19795;BME280;10057;59.402;17.866;2023-12-29T02:32:02;99157.81;;;1.35;89.75
19795;BME280;10057;59.402;17.866;2023-12-29T02:34:32;99144.72;;;1.35;89.72
19795;BME280;10057;59.402;17.866;2023-12-29T02:37:00;99153.44;;;1.36;89.79
19795;BME280;10057;59.402;17.866;2023-12-29T02:39:27;99156.91;;;1.36;89.45
19795;BME280;10057;59.402;17.866;2023-12-29T02:41:54;99149.97;;;1.35;89.78
19795;BME280;10057;59.402;17.866;2023-12-29T02:44:21;99149.06;;;1.36;89.27
19795;BME280;10057;59.402;17.866;2023-12-29T02:46:48;99148.19;;;1.36;89.24
19795;BME280;10057;59.402;17.866;2023-12-29T02:49:14;99134.28;;;1.35;89.43
19795;BME280;10057;59.402;17.866;2023-12-29T02:51:41;99137.75;;;1.36;89.81
19795;BME280;10057;59.402;17.866;2023-12-29T02:54:08;99137.72;;;1.37;89.79
19795;BME280;10057;59.402;17.866;2023-12-29T02:56:34;99143.03;;;1.34;89.20
19795;BME280;10057;59.402;17.866;2023-12-29T02:59:01;99146.50;;;1.35;89.40
19795;BME280;10057;59.402;17.866;2023-12-29T03:01:28;99144.72;;;1.35;89.68
19795;BME280;10057;59.402;17.866;2023-12-29T03:03:55;99147.31;;;1.37;89.68
19795;BME280;10057;59.402;17.866;2023-12-29T03:06:23;99146.50;;;1.35;89.76
19795;BME280;10057;59.402;17.866;2023-12-29T03:08:49;99137.81;;;1.34;89.77
19795;BME280;10057;59.402;17.866;2023-12-29T03:11:16;99136.16;;;1.30;89.43
19795;BME280;10057;59.402;17.866;2023-12-29T03:13:43;99139.63;;;1.31;89.47
19795;BME280;10057;59.402;17.866;2023-12-29T03:16:10;99137.09;;;1.28;89.54
19795;BME280;10057;59.402;17.866;2023-12-29T03:18:37;99137.09;;;1.28;89.82
19795;BME280;10057;59.402;17.866;2023-12-29T03:21:06;99139.66;;;1.29;89.38
19795;BME280;10057;59.402;17.866;2023-12-29T03:23:34;99122.28;;;1.28;89.82
19795;BME280;10057;59.402;17.866;2023-12-29T03:26:01;99125.72;;;1.30;89.33
19795;BME280;10057;59.402;17.866;2023-12-29T03:28:28;99123.97;;;1.31;89.42
19795;BME280;10057;59.402;17.866;2023-12-29T03:30:55;99124.81;;;1.31;89.39
19795;BME280;10057;59.402;17.866;2023-12-29T03:33:22;99130.06;;;1.30;89.55
19795;BME280;10057;59.402;17.866;2023-12-29T03:35:48;99123.97;;;1.29;89.57
19795;BME280;10057;59.402;17.866;2023-12-29T03:38:15;99121.38;;;1.29;89.55
19795;BME280;10057;59.402;17.866;2023-12-29T03:40:42;99122.28;;;1.28;89.83
19795;BME280;10057;59.402;17.866;2023-12-29T03:43:08;99123.97;;;1.29;89.53
19795;BME280;10057;59.402;17.866;2023-12-29T03:45:35;99125.78;;;1.27;89.88
19795;BME280;10057;59.402;17.866;2023-12-29T03:48:02;99128.41;;;1.26;89.54
19795;BME280;10057;59.402;17.866;2023-12-29T03:50:29;99125.81;;;1.26;89.56
19795;BME280;10057;59.402;17.866;2023-12-29T03:52:56;99122.34;;;1.25;89.38
19795;BME280;10057;59.402;17.866;2023-12-29T03:55:22;99115.41;;;1.24;89.55
19795;BME280;10057;59.402;17.866;2023-12-29T03:57:49;99121.44;;;1.26;89.74
19795;BME280;10057;59.402;17.866;2023-12-29T04:00:16;99110.13;;;1.27;90.04
19795;BME280;10057;59.402;17.866;2023-12-29T04:02:43;99108.34;;;1.28;89.92
19795;BME280;10057;59.402;17.866;2023-12-29T04:05:10;99109.16;;;1.30;89.58
19795;BME280;10057;59.402;17.866;2023-12-29T04:07:40;99102.19;;;1.30;89.45
19795;BME280;10057;59.402;17.866;2023-12-29T04:10:08;99102.09;;;1.33;90.16
19795;BME280;10057;59.402;17.866;2023-12-29T04:12:35;99100.31;;;1.35;89.77
19795;BME280;10057;59.402;17.866;2023-12-29T04:15:05;99097.69;;;1.35;89.74
19795;BME280;10057;59.402;17.866;2023-12-29T04:17:32;99082.03;;;1.35;89.51
19795;BME280;10057;59.402;17.866;2023-12-29T04:19:59;99072.47;;;1.34;89.96
19795;BME280;10057;59.402;17.866;2023-12-29T04:22:26;99058.50;;;1.35;89.75
19795;BME280;10057;59.402;17.866;2023-12-29T04:24:53;99059.34;;;1.36;89.88
19795;BME280;10057;59.402;17.866;2023-12-29T04:27:19;99046.28;;;1.37;89.76
19795;BME280;10057;59.402;17.866;2023-12-29T04:29:46;99046.28;;;1.37;89.56
19795;BME280;10057;59.402;17.866;2023-12-29T04:32:13;99045.13;;;1.48;89.49
19795;BME280;10057;59.402;17.866;2023-12-29T04:34:39;99035.16;;;1.62;89.28
19795;BME280;10057;59.402;17.866;2023-12-29T04:37:06;99029.84;;;1.63;88.83
19795;BME280;10057;59.402;17.866;2023-12-29T04:39:33;99030.72;;;1.64;89.12
19795;BME280;10057;59.402;17.866;2023-12-29T04:42:00;99025.63;;;1.59;89.19
19795;BME280;10057;59.402;17.866;2023-12-29T04:44:26;99018.78;;;1.55;89.11
19795;BME280;10057;59.402;17.866;2023-12-29T04:46:53;99004.94;;;1.52;88.94
19795;BME280;10057;59.402;17.866;2023-12-29T04:49:20;99006.72;;;1.50;89.46
19795;BME280;10057;59.402;17.866;2023-12-29T04:51:47;99005.88;;;1.49;89.51
19795;BME280;10057;59.402;17.866;2023-12-29T04:54:15;99004.16;;;1.48;89.38
19795;BME280;10057;59.402;17.866;2023-12-29T04:56:41;99001.50;;;1.50;89.57
19795;BME280;10057;59.402;17.866;2023-12-29T04:59:08;98993.72;;;1.48;89.53
19795;BME280;10057;59.402;17.866;2023-12-29T05:01:35;98990.19;;;1.49;89.49
19795;BME280;10057;59.402;17.866;2023-12-29T05:04:02;98993.66;;;1.50;89.46
19795;BME280;10057;59.402;17.866;2023-12-29T05:06:29;98989.34;;;1.49;89.40
19795;BME280;10057;59.402;17.866;2023-12-29T05:08:55;98984.09;;;1.49;89.74
19795;BME280;10057;59.402;17.866;2023-12-29T05:11:23;98979.72;;;1.51;89.17
19795;BME280;10057;59.402;17.866;2023-12-29T05:13:50;98972.75;;;1.50;89.56
19795;BME280;10057;59.402;17.866;2023-12-29T05:16:17;98972.72;;;1.51;89.78
19795;BME280;10057;59.402;17.866;2023-12-29T05:18:43;98974.44;;;1.52;89.60
19795;BME280;10057;59.402;17.866;2023-12-29T05:21:16;98967.44;;;1.53;89.66
19795;BME280;10057;59.402;17.866;2023-12-29T05:23:44;98962.22;;;1.53;89.62
19795;BME280;10057;59.402;17.866;2023-12-29T05:26:12;98955.28;;;1.52;89.46
19795;BME280;10057;59.402;17.866;2023-12-29T05:28:38;98954.47;;;1.50;89.70
19795;BME280;10057;59.402;17.866;2023-12-29T05:31:05;98944.84;;;1.50;89.83
19795;BME280;10057;59.402;17.866;2023-12-29T05:33:33;98935.31;;;1.49;89.67
19795;BME280;10057;59.402;17.866;2023-12-29T05:36:06;98937.91;;;1.51;89.52
19795;BME280;10057;59.402;17.866;2023-12-29T05:38:34;98941.38;;;1.51;89.64
19795;BME280;10057;59.402;17.866;2023-12-29T05:41:04;98931.78;;;1.50;89.60
19795;BME280;10057;59.402;17.866;2023-12-29T05:43:32;98925.75;;;1.48;89.63
19795;BME280;10057;59.402;17.866;2023-12-29T05:46:01;98921.38;;;1.49;89.94
19795;BME280;10057;59.402;17.866;2023-12-29T05:48:27;98923.16;;;1.48;89.83
19795;BME280;10057;59.402;17.866;2023-12-29T05:50:54;98923.16;;;1.48;89.49
19795;BME280;10057;59.402;17.866;2023-12-29T05:53:21;98911.84;;;1.48;89.79
19795;BME280;10057;59.402;17.866;2023-12-29T05:55:48;98906.66;;;1.46;89.45
19795;BME280;10057;59.402;17.866;2023-12-29T05:58:15;98905.81;;;1.46;89.74
19795;BME280;10057;59.402;17.866;2023-12-29T06:00:41;98904.09;;;1.45;89.31
19795;BME280;10057;59.402;17.866;2023-12-29T06:03:08;98896.34;;;1.41;89.25
19795;BME280;10057;59.402;17.866;2023-12-29T06:05:35;98892.03;;;1.40;89.87
19795;BME280;10057;59.402;17.866;2023-12-29T06:08:02;98891.19;;;1.38;89.69
19795;BME280;10057;59.402;17.866;2023-12-29T06:10:29;98878.22;;;1.35;89.89
19795;BME280;10057;59.402;17.866;2023-12-29T06:12:55;98887.75;;;1.36;89.55
19795;BME280;10057;59.402;17.866;2023-12-29T06:15:22;98870.38;;;1.35;89.61
19795;BME280;10057;59.402;17.866;2023-12-29T06:17:49;98868.63;;;1.36;89.54
19795;BME280;10057;59.402;17.866;2023-12-29T06:20:15;98871.28;;;1.34;89.78
19795;BME280;10057;59.402;17.866;2023-12-29T06:22:42;98866.94;;;1.35;89.97
19795;BME280;10057;59.402;17.866;2023-12-29T06:25:11;98867.78;;;1.35;89.80
19795;BME280;10057;59.402;17.866;2023-12-29T06:27:39;98856.50;;;1.33;89.62
19795;BME280;10057;59.402;17.866;2023-12-29T06:30:07;98843.44;;;1.33;89.89
19795;BME280;10057;59.402;17.866;2023-12-29T06:32:34;98844.41;;;1.31;89.87
19795;BME280;10057;59.402;17.866;2023-12-29T06:35:01;98847.97;;;1.28;89.68
19795;BME280;10057;59.402;17.866;2023-12-29T06:37:29;98845.44;;;1.25;89.29
19795;BME280;10057;59.402;17.866;2023-12-29T06:39:56;98839.41;;;1.23;89.62
19795;BME280;10057;59.402;17.866;2023-12-29T06:42:22;98837.75;;;1.21;89.53
19795;BME280;10057;59.402;17.866;2023-12-29T06:44:49;98828.16;;;1.19;89.77
19795;BME280;10057;59.402;17.866;2023-12-29T06:47:16;98829.06;;;1.20;89.71
19795;BME280;10057;59.402;17.866;2023-12-29T06:49:42;98816.88;;;1.19;90.12
19795;BME280;10057;59.402;17.866;2023-12-29T06:52:09;98824.72;;;1.19;89.78
19795;BME280;10057;59.402;17.866;2023-12-29T06:54:36;98820.34;;;1.19;89.95
19795;BME280;10057;59.402;17.866;2023-12-29T06:57:03;98818.63;;;1.18;89.95
19795;BME280;10057;59.402;17.866;2023-12-29T06:59:30;98823.84;;;1.18;90.04
19795;BME280;10057;59.402;17.866;2023-12-29T07:01:56;98806.47;;;1.17;90.01
19795;BME280;10057;59.402;17.866;2023-12-29T07:04:23;98812.56;;;1.18;90.17
19795;BME280;10057;59.402;17.866;2023-12-29T07:06:50;98814.25;;;1.19;89.72
19795;BME280;10057;59.402;17.866;2023-12-29T07:09:17;98809.88;;;1.19;89.89
19795;BME280;10057;59.402;17.866;2023-12-29T07:11:49;98807.34;;;1.18;89.86
19795;BME280;10057;59.402;17.866;2023-12-29T07:14:16;98806.44;;;1.19;90.23
19795;BME280;10057;59.402;17.866;2023-12-29T07:16:43;98801.28;;;1.16;90.13
19795;BME280;10057;59.402;17.866;2023-12-29T07:19:10;98803.06;;;1.15;90.09
19795;BME280;10057;59.402;17.866;2023-12-29T07:21:38;98799.66;;;1.13;90.00
19795;BME280;10057;59.402;17.866;2023-12-29T07:24:05;98802.28;;;1.12;90.15
19795;BME280;10057;59.402;17.866;2023-12-29T07:26:34;98804.09;;;1.10;89.99
19795;BME280;10057;59.402;17.866;2023-12-29T07:29:04;98791.94;;;1.09;89.94
19795;BME280;10057;59.402;17.866;2023-12-29T07:31:32;98788.53;;;1.07;89.91
19795;BME280;10057;59.402;17.866;2023-12-29T07:33:59;98785.81;;;1.10;90.11
19795;BME280;10057;59.402;17.866;2023-12-29T07:36:26;98783.31;;;1.07;89.93
19795;BME280;10057;59.402;17.866;2023-12-29T07:38:53;98781.56;;;1.06;90.56
19795;BME280;10057;59.402;17.866;2023-12-29T07:41:20;98773.72;;;1.06;90.25
19795;BME280;10057;59.402;17.866;2023-12-29T07:43:46;98769.41;;;1.05;89.99
19795;BME280;10057;59.402;17.866;2023-12-29T07:46:13;98769.41;;;1.05;90.08
19795;BME280;10057;59.402;17.866;2023-12-29T07:48:49;98772.88;;;1.05;90.31
19795;BME280;10057;59.402;17.866;2023-12-29T07:51:16;98768.75;;;1.28;90.36
19795;BME280;10057;59.402;17.866;2023-12-29T07:53:43;98767.16;;;1.50;89.47
19795;BME280;10057;59.402;17.866;2023-12-29T07:56:12;98768.81;;;1.53;88.95
19795;BME280;10057;59.402;17.866;2023-12-29T07:58:39;98769.75;;;1.50;89.16
19795;BME280;10057;59.402;17.866;2023-12-29T08:01:09;98763.03;;;1.43;89.08
19795;BME280;10057;59.402;17.866;2023-12-29T08:03:36;98761.41;;;1.39;89.49
19795;BME280;10057;59.402;17.866;2023-12-29T08:06:03;98763.34;;;1.34;89.83
19795;BME280;10057;59.402;17.866;2023-12-29T08:08:30;98759.97;;;1.30;89.93
19795;BME280;10057;59.402;17.866;2023-12-29T08:10:56;98764.38;;;1.28;89.50
19795;BME280;10057;59.402;17.866;2023-12-29T08:13:23;98762.66;;;1.27;89.93
19795;BME280;10057;59.402;17.866;2023-12-29T08:15:50;98758.31;;;1.26;89.94
19795;BME280;10057;59.402;17.866;2023-12-29T08:18:16;98760.13;;;1.24;89.82
19795;BME280;10057;59.402;17.866;2023-12-29T08:20:44;98755.81;;;1.23;90.00
19795;BME280;10057;59.402;17.866;2023-12-29T08:23:11;98759.31;;;1.22;90.26
19795;BME280;10057;59.402;17.866;2023-12-29T08:25:37;98752.41;;;1.21;90.16
19795;BME280;10057;59.402;17.866;2023-12-29T08:28:04;98748.03;;;1.22;90.32
19795;BME280;10057;59.402;17.866;2023-12-29T08:30:34;98748.03;;;1.22;90.42
19795;BME280;10057;59.402;17.866;2023-12-29T08:33:01;98749.69;;;1.24;90.44
19795;BME280;10057;59.402;17.866;2023-12-29T08:35:28;98745.38;;;1.23;89.95
19795;BME280;10057;59.402;17.866;2023-12-29T08:37:55;98738.44;;;1.22;90.59
19795;BME280;10057;59.402;17.866;2023-12-29T08:40:21;98736.66;;;1.23;90.18
19795;BME280;10057;59.402;17.866;2023-12-29T08:42:48;98737.53;;;1.23;90.38
19795;BME280;10057;59.402;17.866;2023-12-29T08:45:15;98734.00;;;1.24;90.33
19795;BME280;10057;59.402;17.866;2023-12-29T08:47:41;98726.13;;;1.26;90.35
19795;BME280;10057;59.402;17.866;2023-12-29T08:50:08;98728.69;;;1.27;90.29
19795;BME280;10057;59.402;17.866;2023-12-29T08:52:35;98730.47;;;1.27;90.09
19795;BME280;10057;59.402;17.866;2023-12-29T08:55:02;98726.13;;;1.26;90.23
19795;BME280;10057;59.402;17.866;2023-12-29T08:57:31;98727.88;;;1.25;90.14
19795;BME280;10057;59.402;17.866;2023-12-29T08:59:58;98725.28;;;1.25;90.37
19795;BME280;10057;59.402;17.866;2023-12-29T09:02:24;98728.72;;;1.26;90.30
19795;BME280;10057;59.402;17.866;2023-12-29T09:04:51;98724.31;;;1.28;90.04
19795;BME280;10057;59.402;17.866;2023-12-29T09:07:18;98725.19;;;1.28;90.53
19795;BME280;10057;59.402;17.866;2023-12-29T09:09:44;98719.94;;;1.28;90.41
19795;BME280;10057;59.402;17.866;2023-12-29T09:12:11;98718.19;;;1.29;90.47
19795;BME280;10057;59.402;17.866;2023-12-29T09:14:38;98725.09;;;1.31;90.65
19795;BME280;10057;59.402;17.866;2023-12-29T09:17:04;98723.38;;;1.30;90.10
19795;BME280;10057;59.402;17.866;2023-12-29T09:19:31;98721.56;;;1.32;90.21
19795;BME280;10057;59.402;17.866;2023-12-29T09:22:05;98723.25;;;1.33;90.38
19795;BME280;10057;59.402;17.866;2023-12-29T09:24:32;98726.69;;;1.35;90.34
19795;BME280;10057;59.402;17.866;2023-12-29T09:26:59;98727.50;;;1.37;90.44
19795;BME280;10057;59.402;17.866;2023-12-29T09:29:25;98724.91;;;1.37;90.21
19795;BME280;10057;59.402;17.866;2023-12-29T09:31:52;98725.69;;;1.39;90.39
19795;BME280;10057;59.402;17.866;2023-12-29T09:34:19;98729.13;;;1.41;89.99
19795;BME280;10057;59.402;17.866;2023-12-29T09:36:46;98721.28;;;1.41;90.25
19795;BME280;10057;59.402;17.866;2023-12-29T09:39:13;98726.44;;;1.43;90.55
19795;BME280;10057;59.402;17.866;2023-12-29T09:41:43;98722.06;;;1.43;90.47
19795;BME280;10057;59.402;17.866;2023-12-29T09:44:14;98725.50;;;1.46;90.29
19795;BME280;10057;59.402;17.866;2023-12-29T09:46:42;98722.84;;;1.47;90.15
19795;BME280;10057;59.402;17.866;2023-12-29T09:49:10;98720.16;;;1.49;90.09
19795;BME280;10057;59.402;17.866;2023-12-29T09:51:38;98728.81;;;1.51;90.15
19795;BME280;10057;59.402;17.866;2023-12-29T09:54:08;98721.00;;;1.51;90.34
19795;BME280;10057;59.402;17.866;2023-12-29T09:56:40;98718.31;;;1.52;90.64
19795;BME280;10057;59.402;17.866;2023-12-29T09:59:11;98725.19;;;1.55;90.34
19795;BME280;10057;59.402;17.866;2023-12-29T10:01:39;98718.22;;;1.55;90.31
19795;BME280;10057;59.402;17.866;2023-12-29T10:04:08;98722.50;;;1.58;90.22
19795;BME280;10057;59.402;17.866;2023-12-29T10:06:36;98721.47;;;1.62;90.05
19795;BME280;10057;59.402;17.866;2023-12-29T10:09:07;98721.38;;;1.65;89.94
19795;BME280;10057;59.402;17.866;2023-12-29T10:11:37;98720.47;;;1.66;90.33
19795;BME280;10057;59.402;17.866;2023-12-29T10:14:18;98726.44;;;1.70;90.19
19795;BME280;10057;59.402;17.866;2023-12-29T10:16:53;98724.66;;;1.72;90.17
19795;BME280;10057;59.402;17.866;2023-12-29T10:19:45;98725.44;;;1.74;90.31
19795;BME280;10057;59.402;17.866;2023-12-29T10:22:33;98721.88;;;1.76;90.47
19795;BME280;10057;59.402;17.866;2023-12-29T10:25:04;98728.78;;;1.79;89.86
19795;BME280;10057;59.402;17.866;2023-12-29T10:27:30;98720.00;;;1.80;89.98
19795;BME280;10057;59.402;17.866;2023-12-29T10:29:57;98730.31;;;1.84;90.19
19795;BME280;10057;59.402;17.866;2023-12-29T10:32:24;98722.44;;;1.86;89.75
19795;BME280;10057;59.402;17.866;2023-12-29T10:34:54;98731.94;;;1.88;89.86
19795;BME280;10057;59.402;17.866;2023-12-29T10:37:33;98734.44;;;1.92;89.95
19795;BME280;10057;59.402;17.866;2023-12-29T10:40:00;98733.53;;;1.93;89.95
19795;BME280;10057;59.402;17.866;2023-12-29T10:42:27;98730.81;;;1.96;89.72
19795;BME280;10057;59.402;17.866;2023-12-29T10:45:14;98727.28;;;1.97;89.70
19795;BME280;10057;59.402;17.866;2023-12-29T10:47:43;98728.03;;;2.00;89.89
19795;BME280;10057;59.402;17.866;2023-12-29T10:50:10;98728.00;;;2.02;89.91
19795;BME280;10057;59.402;17.866;2023-12-29T10:52:37;98737.59;;;2.01;89.56
19795;BME280;10057;59.402;17.866;2023-12-29T10:55:10;98728.03;;;2.00;89.79
19795;BME280;10057;59.402;17.866;2023-12-29T10:57:38;98727.19;;;2.00;89.45
19795;BME280;10057;59.402;17.866;2023-12-29T11:00:06;98735.94;;;1.99;89.84
19795;BME280;10057;59.402;17.866;2023-12-29T11:02:39;98741.19;;;1.99;89.55
19795;BME280;10057;59.402;17.866;2023-12-29T11:05:08;98736.84;;;1.98;89.64
19795;BME280;10057;59.402;17.866;2023-12-29T11:07:39;98743.78;;;1.99;89.94
19795;BME280;10057;59.402;17.866;2023-12-29T11:10:08;98736.72;;;2.01;89.49
19795;BME280;10057;59.402;17.866;2023-12-29T11:12:37;98736.81;;;1.99;89.33
19795;BME280;10057;59.402;17.866;2023-12-29T11:15:06;98736.91;;;1.96;89.45
19795;BME280;10057;59.402;17.866;2023-12-29T11:17:34;98737.81;;;1.95;89.30
19795;BME280;10057;59.402;17.866;2023-12-29T11:20:03;98741.38;;;1.93;89.70
19795;BME280;10057;59.402;17.866;2023-12-29T11:22:32;98738.75;;;1.93;89.97
19795;BME280;10057;59.402;17.866;2023-12-29T11:24:59;98746.66;;;1.91;89.91
19795;BME280;10057;59.402;17.866;2023-12-29T11:27:30;98739.81;;;1.87;89.57
19795;BME280;10057;59.402;17.866;2023-12-29T11:29:59;98739.16;;;1.80;88.95
19795;BME280;10057;59.402;17.866;2023-12-29T11:32:49;98739.34;;;1.74;89.29
19795;BME280;10057;59.402;17.866;2023-12-29T11:35:19;98744.75;;;1.70;89.36
19795;BME280;10057;59.402;17.866;2023-12-29T11:38:01;98733.53;;;1.66;89.59
19795;BME280;10057;59.402;17.866;2023-12-29T11:43:09;98735.34;;;1.64;90.18
19795;BME280;10057;59.402;17.866;2023-12-29T11:45:39;98737.91;;;1.65;90.13
19795;BME280;10057;59.402;17.866;2023-12-29T11:48:06;98736.16;;;1.66;90.37
19795;BME280;10057;59.402;17.866;2023-12-29T11:50:37;98739.69;;;1.65;89.84
19795;BME280;10057;59.402;17.866;2023-12-29T11:53:05;98744.06;;;1.64;89.87
19795;BME280;10057;59.402;17.866;2023-12-29T11:55:35;98743.09;;;1.67;89.81
19795;BME280;10057;59.402;17.866;2023-12-29T11:58:03;98740.47;;;1.67;90.20
19795;BME280;10057;59.402;17.866;2023-12-29T12:01:00;98740.44;;;1.69;90.33
19795;BME280;10057;59.402;17.866;2023-12-29T12:03:28;98739.59;;;1.68;90.11
19795;BME280;10057;59.402;17.866;2023-12-29T12:05:58;98743.84;;;1.71;90.27
19795;BME280;10057;59.402;17.866;2023-12-29T12:08:35;98747.28;;;1.73;90.26
19795;BME280;10057;59.402;17.866;2023-12-29T12:14:02;98746.22;;;1.78;90.64
19795;BME280;10057;59.402;17.866;2023-12-29T12:19:12;98749.63;;;1.80;90.20
19795;BME280;10057;59.402;17.866;2023-12-29T12:21:40;98752.31;;;1.79;89.99
19795;BME280;10057;59.402;17.866;2023-12-29T12:24:07;98746.25;;;1.77;90.32
19795;BME280;10057;59.402;17.866;2023-12-29T12:26:34;98761.91;;;1.78;90.36
19795;BME280;10057;59.402;17.866;2023-12-29T12:29:01;98758.38;;;1.79;90.30
19795;BME280;10057;59.402;17.866;2023-12-29T12:31:28;98756.59;;;1.81;90.12
19795;BME280;10057;59.402;17.866;2023-12-29T12:33:56;98758.28;;;1.82;90.22
19795;BME280;10057;59.402;17.866;2023-12-29T12:36:24;98757.47;;;1.80;90.40
19795;BME280;10057;59.402;17.866;2023-12-29T12:38:56;98765.31;;;1.80;90.26
19795;BME280;10057;59.402;17.866;2023-12-29T12:41:25;98759.22;;;1.80;90.07
19795;BME280;10057;59.402;17.866;2023-12-29T12:44:06;98756.69;;;1.78;90.19
19795;BME280;10057;59.402;17.866;2023-12-29T12:46:40;98759.22;;;1.80;90.19
19795;BME280;10057;59.402;17.866;2023-12-29T12:49:08;98748.84;;;1.78;90.42
19795;BME280;10057;59.402;17.866;2023-12-29T12:51:35;98754.09;;;1.77;90.30
19795;BME280;10057;59.402;17.866;2023-12-29T12:54:02;98749.81;;;1.74;89.90
19795;BME280;10057;59.402;17.866;2023-12-29T12:56:30;98747.19;;;1.74;90.42
19795;BME280;10057;59.402;17.866;2023-12-29T12:58:57;98754.19;;;1.74;90.42
19795;BME280;10057;59.402;17.866;2023-12-29T13:01:25;98748.13;;;1.73;90.25
19795;BME280;10057;59.402;17.866;2023-12-29T13:03:54;98755.19;;;1.71;90.25
19795;BME280;10057;59.402;17.866;2023-12-29T13:06:21;98752.59;;;1.70;89.92
19795;BME280;10057;59.402;17.866;2023-12-29T13:08:50;98754.34;;;1.69;90.61
19795;BME280;10057;59.402;17.866;2023-12-29T13:11:19;98761.34;;;1.69;90.14
19795;BME280;10057;59.402;17.866;2023-12-29T13:13:51;98767.53;;;1.66;90.19
19795;BME280;10057;59.402;17.866;2023-12-29T13:16:33;98766.78;;;1.62;90.38
19795;BME280;10057;59.402;17.866;2023-12-29T13:21:54;98762.53;;;1.58;89.99